AAL2734 KDFW-KOKC
Flight info
| Callsign | AAL2734 |
|---|---|
| Flight time | 0h 37m |
| Altitude | 22000 |
| Route | BLECO8 ZEMMA TSDEL3 |
| Aircraft | A321/M-SDE3FGHIRWY/LB1 |
Departure
| Time | 2026-05-08 18:26 |
|---|---|
| Airport | Dallas Fort Worth International Airport (KDFW) |
Arrival
| Time | 2026-05-08 19:03 |
|---|---|
| Airport | OKC Will Rogers World Airport (KOKC) |
| Time | Latitude | Longitude | Altitude | Speed | Heading |
|---|---|---|---|---|---|
| 2026-05-08 18:00 | 32.90616 | -97.03533 | 587 ft | 0 kts | 248° |
| 2026-05-08 18:17 | 32.90617 | -97.03532 | 587 ft | 2 kts | 248° |
| 2026-05-08 18:18 | 32.90625 | -97.03504 | 587 ft | 4 kts | 258° |
| 2026-05-08 18:18 | 32.90628 | -97.03472 | 587 ft | 4 kts | 270° |
| 2026-05-08 18:18 | 32.90626 | -97.03441 | 587 ft | 3 kts | 281° |
| 2026-05-08 18:18 | 32.90626 | -97.03437 | 587 ft | 0 kts | 281° |
| 2026-05-08 18:21 | 32.90632 | -97.03446 | 587 ft | 2 kts | 323° |
| 2026-05-08 18:21 | 32.90657 | -97.03424 | 587 ft | 8 kts | 57° |
| 2026-05-08 18:21 | 32.90674 | -97.03336 | 586 ft | 14 kts | 54° |
| 2026-05-08 18:21 | 32.90792 | -97.03310 | 585 ft | 21 kts | 0° |
| 2026-05-08 18:22 | 32.90956 | -97.03308 | 583 ft | 25 kts | 2° |
| 2026-05-08 18:22 | 32.91127 | -97.03273 | 580 ft | 25 kts | 0° |
| 2026-05-08 18:22 | 32.91300 | -97.03272 | 581 ft | 25 kts | 359° |
| 2026-05-08 18:22 | 32.91464 | -97.03267 | 578 ft | 17 kts | 19° |
| 2026-05-08 18:23 | 32.91485 | -97.03189 | 578 ft | 10 kts | 91° |
| 2026-05-08 18:23 | 32.91486 | -97.03119 | 576 ft | 0 kts | 90° |
| 2026-05-08 18:24 | 32.91486 | -97.03118 | 576 ft | 1 kts | 90° |
| 2026-05-08 18:25 | 32.91486 | -97.03085 | 577 ft | 8 kts | 90° |
| 2026-05-08 18:25 | 32.91468 | -97.03000 | 582 ft | 14 kts | 141° |
| 2026-05-08 18:25 | 32.91308 | -97.02990 | 578 ft | 48 kts | 182° |
| 2026-05-08 18:25 | 32.90741 | -97.02991 | 578 ft | 113 kts | 180° |
| 2026-05-08 18:26 | 32.89774 | -97.02996 | 580 ft | 162 kts | 180° |
| 2026-05-08 18:26 | 32.88589 | -97.02995 | 1052 ft | 169 kts | 179° |
| 2026-05-08 18:26 | 32.87415 | -97.02958 | 1734 ft | 169 kts | 176° |
| 2026-05-08 18:26 | 32.86236 | -97.02903 | 2342 ft | 172 kts | 176° |
| 2026-05-08 18:27 | 32.84971 | -97.02798 | 2632 ft | 194 kts | 168° |
| 2026-05-08 18:27 | 32.84095 | -97.02428 | 2772 ft | 210 kts | 158° |
| 2026-05-08 18:27 | 32.82167 | -97.01456 | 3157 ft | 243 kts | 159° |
| 2026-05-08 18:27 | 32.80554 | -97.00654 | 3878 ft | 255 kts | 159° |
| 2026-05-08 18:28 | 32.78931 | -96.99718 | 4808 ft | 266 kts | 145° |
| 2026-05-08 18:28 | 32.77760 | -96.97979 | 5670 ft | 278 kts | 115° |
| 2026-05-08 18:28 | 32.77051 | -96.95809 | 6625 ft | 283 kts | 112° |
| 2026-05-08 18:28 | 32.76539 | -96.93530 | 7457 ft | 292 kts | 96° |
| 2026-05-08 18:29 | 32.76565 | -96.91052 | 8111 ft | 306 kts | 88° |
| 2026-05-08 18:29 | 32.76683 | -96.88503 | 8917 ft | 312 kts | 85° |
| 2026-05-08 18:29 | 32.77242 | -96.86026 | 9683 ft | 319 kts | 63° |
| 2026-05-08 18:29 | 32.78532 | -96.83880 | 10399 ft | 321 kts | 40° |
| 2026-05-08 18:30 | 32.80371 | -96.82422 | 11095 ft | 316 kts | 17° |
| 2026-05-08 18:30 | 32.82493 | -96.81726 | 11607 ft | 324 kts | 6° |
| 2026-05-08 18:30 | 32.84779 | -96.81176 | 11787 ft | 346 kts | 4° |
| 2026-05-08 18:30 | 32.87236 | -96.80912 | 11926 ft | 363 kts | 355° |
| 2026-05-08 18:31 | 32.89807 | -96.80938 | 12178 ft | 379 kts | 354° |
| 2026-05-08 18:31 | 32.92467 | -96.80953 | 12776 ft | 385 kts | 354° |
| 2026-05-08 18:31 | 32.95160 | -96.80954 | 13463 ft | 389 kts | 354° |
| 2026-05-08 18:31 | 32.97845 | -96.81229 | 14044 ft | 386 kts | 343° |
| 2026-05-08 18:32 | 33.00413 | -96.82080 | 14553 ft | 382 kts | 333° |
| 2026-05-08 18:32 | 33.02794 | -96.83461 | 15073 ft | 380 kts | 326° |
| 2026-05-08 18:32 | 33.05121 | -96.84980 | 15599 ft | 383 kts | 326° |
| 2026-05-08 18:32 | 33.07475 | -96.86506 | 16136 ft | 386 kts | 326° |
| 2026-05-08 18:33 | 33.09847 | -96.88038 | 16685 ft | 389 kts | 326° |
| 2026-05-08 18:33 | 33.12247 | -96.89588 | 17234 ft | 392 kts | 326° |
| 2026-05-08 18:33 | 33.14662 | -96.91145 | 17774 ft | 395 kts | 326° |
| 2026-05-08 18:33 | 33.17071 | -96.92700 | 18288 ft | 399 kts | 326° |
| 2026-05-08 18:34 | 33.19527 | -96.94287 | 18753 ft | 401 kts | 326° |
| 2026-05-08 18:34 | 33.21996 | -96.95881 | 19203 ft | 404 kts | 326° |
| 2026-05-08 18:34 | 33.24455 | -96.97471 | 19646 ft | 406 kts | 326° |
| 2026-05-08 18:34 | 33.26937 | -96.99082 | 20077 ft | 409 kts | 326° |
| 2026-05-08 18:35 | 33.29460 | -97.00723 | 20521 ft | 411 kts | 326° |
| 2026-05-08 18:35 | 33.31982 | -97.02364 | 20950 ft | 413 kts | 326° |
| 2026-05-08 18:35 | 33.34515 | -97.04015 | 21369 ft | 416 kts | 326° |
| 2026-05-08 18:35 | 33.37059 | -97.05676 | 21770 ft | 418 kts | 326° |
| 2026-05-08 18:36 | 33.39624 | -97.07349 | 21930 ft | 420 kts | 326° |
| 2026-05-08 18:36 | 33.42248 | -97.08892 | 21966 ft | 435 kts | 333° |
| 2026-05-08 18:36 | 33.45212 | -97.09950 | 21973 ft | 454 kts | 343° |
| 2026-05-08 18:36 | 33.48419 | -97.10361 | 21988 ft | 473 kts | 354° |
| 2026-05-08 18:37 | 33.51777 | -97.10082 | 21978 ft | 487 kts | 1° |
| 2026-05-08 18:37 | 33.55144 | -97.09636 | 21974 ft | 489 kts | 1° |
| 2026-05-08 18:37 | 33.58543 | -97.09193 | 21976 ft | 489 kts | 1° |
| 2026-05-08 18:37 | 33.61899 | -97.08764 | 21980 ft | 489 kts | 1° |
| 2026-05-08 18:38 | 33.65270 | -97.08340 | 21981 ft | 489 kts | 1° |
| 2026-05-08 18:38 | 33.68664 | -97.07916 | 21979 ft | 489 kts | 1° |
| 2026-05-08 18:38 | 33.72040 | -97.07494 | 21974 ft | 489 kts | 1° |
| 2026-05-08 18:38 | 33.75442 | -97.07067 | 21972 ft | 489 kts | 0° |
| 2026-05-08 18:39 | 33.78845 | -97.06640 | 21945 ft | 489 kts | 0° |
| 2026-05-08 18:39 | 33.82186 | -97.06217 | 21933 ft | 488 kts | 0° |
| 2026-05-08 18:39 | 33.85575 | -97.05783 | 21930 ft | 488 kts | 0° |
| 2026-05-08 18:39 | 33.88958 | -97.05348 | 21927 ft | 487 kts | 0° |
| 2026-05-08 18:40 | 33.92311 | -97.04915 | 21921 ft | 487 kts | 0° |
| 2026-05-08 18:40 | 33.95683 | -97.04482 | 21921 ft | 487 kts | 0° |
| 2026-05-08 18:40 | 33.99071 | -97.04046 | 21922 ft | 487 kts | 0° |
| 2026-05-08 18:40 | 34.02411 | -97.03618 | 21945 ft | 487 kts | 0° |
| 2026-05-08 18:41 | 34.05789 | -97.03186 | 21944 ft | 487 kts | 0° |
| 2026-05-08 18:41 | 34.09163 | -97.02757 | 21941 ft | 487 kts | 0° |
| 2026-05-08 18:41 | 34.12539 | -97.02330 | 21938 ft | 488 kts | 0° |
| 2026-05-08 18:41 | 34.15913 | -97.01898 | 21939 ft | 487 kts | 0° |
| 2026-05-08 18:42 | 34.19285 | -97.01461 | 21934 ft | 488 kts | 0° |
| 2026-05-08 18:42 | 34.22656 | -97.01023 | 21937 ft | 488 kts | 0° |
| 2026-05-08 18:42 | 34.26029 | -97.00587 | 21933 ft | 487 kts | 0° |
| 2026-05-08 18:42 | 34.29401 | -97.00154 | 21963 ft | 487 kts | 1° |
| 2026-05-08 18:43 | 34.31633 | -96.99868 | 21963 ft | 487 kts | 1° |
| 2026-05-08 18:43 | 34.36097 | -96.99686 | 21960 ft | 478 kts | 350° |
| 2026-05-08 18:43 | 34.38315 | -97.00057 | 21960 ft | 472 kts | 343° |
| 2026-05-08 18:43 | 34.42409 | -97.01622 | 21953 ft | 462 kts | 331° |
| 2026-05-08 18:44 | 34.44310 | -97.02768 | 21946 ft | 459 kts | 327° |
| 2026-05-08 18:44 | 34.47134 | -97.04569 | 21936 ft | 456 kts | 327° |
| 2026-05-08 18:44 | 34.49876 | -97.06311 | 21945 ft | 435 kts | 327° |
| 2026-05-08 18:44 | 34.52541 | -97.08005 | 21948 ft | 430 kts | 327° |
| 2026-05-08 18:45 | 34.55175 | -97.09691 | 21952 ft | 427 kts | 327° |
| 2026-05-08 18:45 | 34.57771 | -97.11359 | 21954 ft | 416 kts | 327° |
| 2026-05-08 18:45 | 34.60320 | -97.12996 | 21957 ft | 411 kts | 327° |
| 2026-05-08 18:45 | 34.62804 | -97.14584 | 21901 ft | 392 kts | 327° |
| 2026-05-08 18:46 | 34.65168 | -97.16091 | 21479 ft | 380 kts | 327° |
| 2026-05-08 18:46 | 34.67482 | -97.17573 | 21140 ft | 371 kts | 326° |
| 2026-05-08 18:46 | 34.69733 | -97.19018 | 20453 ft | 367 kts | 326° |
| 2026-05-08 18:46 | 34.71979 | -97.20464 | 19745 ft | 363 kts | 326° |
| 2026-05-08 18:47 | 34.74212 | -97.21902 | 19033 ft | 360 kts | 326° |
| 2026-05-08 18:47 | 34.76417 | -97.23324 | 18347 ft | 357 kts | 326° |
| 2026-05-08 18:47 | 34.78593 | -97.24740 | 17605 ft | 353 kts | 325° |
| 2026-05-08 18:47 | 34.80703 | -97.26216 | 16847 ft | 348 kts | 323° |
| 2026-05-08 18:48 | 34.82758 | -97.27744 | 16113 ft | 344 kts | 323° |
| 2026-05-08 18:48 | 34.84751 | -97.29266 | 15795 ft | 328 kts | 322° |
| 2026-05-08 18:48 | 34.86637 | -97.30711 | 15531 ft | 318 kts | 323° |
| 2026-05-08 18:48 | 34.88537 | -97.32170 | 14880 ft | 325 kts | 323° |
| 2026-05-08 18:49 | 34.90478 | -97.33657 | 14647 ft | 333 kts | 323° |
| 2026-05-08 18:49 | 34.92447 | -97.35167 | 14358 ft | 334 kts | 323° |
| 2026-05-08 18:49 | 34.94412 | -97.36668 | 13934 ft | 332 kts | 324° |
| 2026-05-08 18:49 | 34.96365 | -97.38154 | 13479 ft | 330 kts | 324° |
| 2026-05-08 18:50 | 34.98288 | -97.39616 | 13039 ft | 329 kts | 324° |
| 2026-05-08 18:50 | 35.00249 | -97.41108 | 12602 ft | 327 kts | 324° |
| 2026-05-08 18:50 | 35.02153 | -97.42562 | 12164 ft | 326 kts | 324° |
| 2026-05-08 18:50 | 35.04074 | -97.44034 | 11736 ft | 324 kts | 324° |
| 2026-05-08 18:51 | 35.05984 | -97.45483 | 11321 ft | 323 kts | 328° |
| 2026-05-08 18:51 | 35.08070 | -97.46515 | 10899 ft | 325 kts | 343° |
| 2026-05-08 18:51 | 35.10314 | -97.46872 | 10470 ft | 327 kts | 354° |
| 2026-05-08 18:51 | 35.12589 | -97.47012 | 10038 ft | 326 kts | 354° |
| 2026-05-08 18:52 | 35.14838 | -97.47150 | 9600 ft | 324 kts | 353° |
| 2026-05-08 18:52 | 35.17093 | -97.47292 | 9145 ft | 323 kts | 353° |
| 2026-05-08 18:52 | 35.19330 | -97.47436 | 8711 ft | 322 kts | 353° |
| 2026-05-08 18:52 | 35.21566 | -97.47577 | 8295 ft | 321 kts | 354° |
| 2026-05-08 18:53 | 35.23796 | -97.47719 | 7874 ft | 320 kts | 353° |
| 2026-05-08 18:53 | 35.26009 | -97.47862 | 7750 ft | 319 kts | 354° |
| 2026-05-08 18:53 | 35.28233 | -97.48005 | 7626 ft | 321 kts | 354° |
| 2026-05-08 18:53 | 35.30470 | -97.48148 | 7434 ft | 322 kts | 353° |
| 2026-05-08 18:54 | 35.32707 | -97.48293 | 7000 ft | 321 kts | 354° |
| 2026-05-08 18:54 | 35.34932 | -97.48435 | 6620 ft | 319 kts | 354° |
| 2026-05-08 18:54 | 35.37146 | -97.48572 | 6269 ft | 317 kts | 354° |
| 2026-05-08 18:54 | 35.39354 | -97.48699 | 6004 ft | 315 kts | 355° |
| 2026-05-08 18:55 | 35.43474 | -97.48737 | 5984 ft | 277 kts | 356° |
| 2026-05-08 18:55 | 35.45303 | -97.48730 | 5986 ft | 249 kts | 356° |
| 2026-05-08 18:55 | 35.46974 | -97.48734 | 6023 ft | 231 kts | 355° |
| 2026-05-08 18:56 | 35.48550 | -97.48751 | 5880 ft | 223 kts | 355° |
| 2026-05-08 18:56 | 35.50087 | -97.48779 | 5617 ft | 220 kts | 353° |
| 2026-05-08 18:56 | 35.51611 | -97.48815 | 5380 ft | 218 kts | 353° |
| 2026-05-08 18:56 | 35.53125 | -97.48854 | 5131 ft | 216 kts | 354° |
| 2026-05-08 18:57 | 35.54625 | -97.48889 | 4826 ft | 214 kts | 353° |
| 2026-05-08 18:57 | 35.55608 | -97.48911 | 4560 ft | 213 kts | 353° |
| 2026-05-08 18:57 | 35.57410 | -97.49527 | 4041 ft | 200 kts | 314° |
| 2026-05-08 18:57 | 35.58075 | -97.50932 | 3990 ft | 189 kts | 275° |
| 2026-05-08 18:58 | 35.58109 | -97.52535 | 3991 ft | 188 kts | 264° |
| 2026-05-08 18:58 | 35.58014 | -97.54142 | 3991 ft | 190 kts | 263° |
| 2026-05-08 18:58 | 35.57898 | -97.55757 | 3988 ft | 189 kts | 263° |
| 2026-05-08 18:58 | 35.57660 | -97.57283 | 3998 ft | 178 kts | 243° |
| 2026-05-08 18:59 | 35.56759 | -97.58309 | 3993 ft | 182 kts | 211° |
| 2026-05-08 18:59 | 35.55589 | -97.58901 | 3994 ft | 181 kts | 204° |
| 2026-05-08 18:59 | 35.54442 | -97.59412 | 3989 ft | 171 kts | 204° |
| 2026-05-08 18:59 | 35.53357 | -97.59869 | 3964 ft | 162 kts | 203° |
| 2026-05-08 19:00 | 35.52280 | -97.60317 | 3589 ft | 163 kts | 200° |
| 2026-05-08 19:00 | 35.51181 | -97.60638 | 3195 ft | 164 kts | 180° |
| 2026-05-08 19:00 | 35.50061 | -97.60574 | 2978 ft | 156 kts | 181° |
| 2026-05-08 19:00 | 35.48983 | -97.60577 | 2859 ft | 149 kts | 182° |
| 2026-05-08 19:01 | 35.47973 | -97.60578 | 2698 ft | 151 kts | 180° |
| 2026-05-08 19:01 | 35.46916 | -97.60578 | 2527 ft | 147 kts | 184° |
| 2026-05-08 19:01 | 35.45894 | -97.60577 | 2355 ft | 147 kts | 181° |
| 2026-05-08 19:01 | 35.44864 | -97.60578 | 2160 ft | 147 kts | 184° |
| 2026-05-08 19:02 | 35.43823 | -97.60572 | 1983 ft | 148 kts | 182° |
| 2026-05-08 19:02 | 35.42788 | -97.60559 | 1831 ft | 152 kts | 184° |
| 2026-05-08 19:02 | 35.41778 | -97.60573 | 1570 ft | 144 kts | 184° |
| 2026-05-08 19:02 | 35.40740 | -97.60573 | 1378 ft | 148 kts | 183° |
| 2026-05-08 19:03 | 35.39760 | -97.60569 | 1294 ft | 125 kts | 181° |
| 2026-05-08 19:03 | 35.39052 | -97.60571 | 1299 ft | 77 kts | 180° |
| 2026-05-08 19:03 | 35.38690 | -97.60572 | 1298 ft | 27 kts | 180° |
| 2026-05-08 19:03 | 35.38574 | -97.60555 | 1298 ft | 15 kts | 146° |
| 2026-05-08 19:04 | 35.38548 | -97.60429 | 1297 ft | 17 kts | 90° |
| 2026-05-08 19:04 | 35.38604 | -97.60339 | 1296 ft | 14 kts | 17° |
| 2026-05-08 19:04 | 35.38698 | -97.60335 | 1299 ft | 13 kts | 358° |
| 2026-05-08 19:04 | 35.38807 | -97.60341 | 1300 ft | 20 kts | 356° |
| 2026-05-08 19:05 | 35.38976 | -97.60353 | 1299 ft | 27 kts | 357° |
| 2026-05-08 19:05 | 35.39163 | -97.60365 | 1299 ft | 18 kts | 357° |
| 2026-05-08 19:05 | 35.39217 | -97.60269 | 1299 ft | 15 kts | 88° |
| 2026-05-08 19:05 | 35.39218 | -97.60135 | 1298 ft | 17 kts | 89° |
| 2026-05-08 19:06 | 35.39221 | -97.59986 | 1297 ft | 18 kts | 88° |
| 2026-05-08 19:06 | 35.39258 | -97.59911 | 1297 ft | 8 kts | 348° |
| 2026-05-08 19:06 | 35.39302 | -97.59958 | 1298 ft | 9 kts | 315° |
| 2026-05-08 19:06 | 35.39366 | -97.60035 | 1297 ft | 17 kts | 316° |
| 2026-05-08 19:07 | 35.39475 | -97.60159 | 1293 ft | 23 kts | 317° |
| 2026-05-08 19:07 | 35.39554 | -97.60198 | 1292 ft | 11 kts | 36° |
| 2026-05-08 19:07 | 35.39591 | -97.60113 | 1293 ft | 11 kts | 65° |
| 2026-05-08 19:07 | 35.39622 | -97.60031 | 1295 ft | 10 kts | 65° |
| 2026-05-08 19:08 | 35.39629 | -97.59960 | 1298 ft | 6 kts | 112° |
| 2026-05-08 19:08 | 35.39590 | -97.59947 | 1298 ft | 7 kts | 178° |
| 2026-05-08 19:08 | 35.39573 | -97.59947 | 1297 ft | 0 kts | 179° |